Time;durP1;ratioP1;P1;durP2;ratioP2;P2;SDS_P1;SDS_P2;PMS_P1;PMS_P2;Temp;Humidity;BMP_temperature;BMP_pressure;BME280_temperature;BME280_humidity;BME280_pressure;Samples;Min_cycle;Max_cycle;Signal;HPM_P1;HPM_P2
2023/02/14 00:01:17;;;;;;;15.77;10.25;;;;;;;;;;6282277;22;20023;-93
2023/02/14 00:03:43;;;;;;;17.95;11.32;;;;;;;;;;6324400;22;20007;-93
2023/02/14 00:06:12;;;;;;;23.63;13.32;;;;;;;;;;6322814;22;20010;-94
2023/02/14 00:08:45;;;;;;;15.57;10.20;;;;;;;;;;6321792;22;20003;-94
2023/02/14 00:11:17;;;;;;;14.13;9.68;;;;;;;;;;6320896;22;20003;-93
2023/02/14 00:15:20;;;;;;;14.25;9.50;;;;;;;;;;6322243;22;19987;-93
2023/02/14 00:16:30;;;;;;;17.05;11.35;;;;;;;;;;6348880;22;20021;-93
2023/02/14 00:19:05;;;;;;;17.05;10.63;;;;;;;;;;6322701;22;20081;-93
2023/02/14 00:21:41;;;;;;;17.08;10.52;;;;;;;;;;6323067;22;20049;-92
2023/02/14 00:24:30;;;;;;;19.00;11.95;;;;;;;;;;6320852;22;20335;-93
2023/02/14 00:26:56;;;;;;;18.90;10.48;;;;;;;;;;6296153;22;20003;-93
2023/02/14 00:29:26;;;;;;;17.00;11.77;;;;;;;;;;6320622;22;20082;-93
2023/02/14 00:31:55;;;;;;;16.48;11.20;;;;;;;;;;6321107;22;20063;-94
2023/02/14 00:34:21;;;;;;;14.90;10.13;;;;;;;;;;6322686;22;20021;-92
2023/02/14 00:36:49;;;;;;;16.95;10.50;;;;;;;;;;6321758;22;20007;-93
2023/02/14 00:39:15;;;;;;;17.35;11.10;;;;;;;;;;6320537;22;20003;-92
2023/02/14 00:41:42;;;;;;;16.15;10.32;;;;;;;;;;6322423;22;20032;-93
2023/02/14 00:44:12;;;;;;;16.30;10.80;;;;;;;;;;6320249;22;20040;-93
2023/02/14 00:46:38;;;;;;;19.30;12.50;;;;;;;;;;6294725;22;20034;-91
2023/02/14 00:49:05;;;;;;;18.05;12.25;;;;;;;;;;6318092;22;20010;-91
2023/02/14 00:51:37;;;;;;;18.60;13.02;;;;;;;;;;6322342;22;20022;-92
2023/02/14 00:54:03;;;;;;;17.58;11.15;;;;;;;;;;6321461;22;20332;-92
2023/02/14 00:56:36;;;;;;;17.30;11.82;;;;;;;;;;6319750;22;20090;-92
2023/02/14 00:59:05;;;;;;;21.00;12.05;;;;;;;;;;6320088;22;19983;-93
2023/02/14 01:01:37;;;;;;;17.88;12.32;;;;;;;;;;6319358;22;20025;-94
2023/02/14 01:04:05;;;;;;;18.10;12.35;;;;;;;;;;6319676;22;20412;-94
2023/02/14 01:06:35;;;;;;;18.33;12.43;;;;;;;;;;6319157;22;20010;-92
2023/02/14 01:09:05;;;;;;;20.05;12.27;;;;;;;;;;6321786;22;20006;-92
2023/02/14 01:11:37;;;;;;;21.45;12.70;;;;;;;;;;6320385;22;20070;-91
2023/02/14 01:14:03;;;;;;;18.80;12.27;;;;;;;;;;6322632;22;20416;-93
2023/02/14 01:16:30;;;;;;;18.98;12.35;;;;;;;;;;6318978;22;20013;-94
2023/02/14 01:19:01;;;;;;;21.38;12.30;;;;;;;;;;6319843;22;19999;-93
2023/02/14 01:21:36;;;;;;;19.65;12.82;;;;;;;;;;6317684;22;20018;-93
2023/02/14 01:24:06;;;;;;;19.23;12.98;;;;;;;;;;6317592;22;20006;-94
2023/02/14 01:26:37;;;;;;;18.27;11.60;;;;;;;;;;6319595;22;20014;-92
2023/02/14 01:29:07;;;;;;;20.63;12.52;;;;;;;;;;6319332;22;20050;-94
2023/02/14 01:31:40;;;;;;;18.23;12.77;;;;;;;;;;6346970;22;20319;-93
2023/02/14 01:34:06;;;;;;;18.48;11.65;;;;;;;;;;6319858;22;20006;-92
2023/02/14 01:36:37;;;;;;;19.45;12.50;;;;;;;;;;6320863;22;20003;-93
2023/02/14 01:39:08;;;;;;;19.85;12.60;;;;;;;;;;6311827;22;20011;-93
2023/02/14 01:41:47;;;;;;;18.27;12.60;;;;;;;;;;6292356;22;20034;-92
2023/02/14 01:53:29;;;;;;;20.38;11.90;;;;;;;;;;6335189;22;20482;-93
2023/02/14 01:55:59;;;;;;;21.67;12.73;;;;;;;;;;6315648;22;20054;-92
2023/02/14 01:58:36;;;;;;;19.13;12.13;;;;;;;;;;6315518;22;20070;-93
2023/02/14 02:01:06;;;;;;;17.50;11.98;;;;;;;;;;6317111;22;20003;-93
2023/02/14 02:03:37;;;;;;;21.98;13.32;;;;;;;;;;6316776;22;20082;-95
2023/02/14 02:06:12;;;;;;;20.85;13.55;;;;;;;;;;6317017;22;20015;-92
2023/02/14 02:08:43;;;;;;;19.50;12.88;;;;;;;;;;6315750;22;20366;-93
2023/02/14 02:11:12;;;;;;;19.90;12.88;;;;;;;;;;6316865;22;19991;-94
2023/02/14 02:13:38;;;;;;;20.27;13.45;;;;;;;;;;6316997;22;20418;-93
2023/02/14 02:16:27;;;;;;;19.85;13.20;;;;;;;;;;6301478;22;20022;-94
2023/02/14 02:19:12;;;;;;;20.25;12.95;;;;;;;;;;6249914;22;20010;-93
2023/02/14 02:21:38;;;;;;;20.95;13.25;;;;;;;;;;6318918;22;20007;-93
2023/02/14 02:24:14;;;;;;;19.52;13.20;;;;;;;;;;6317318;22;20006;-93
2023/02/14 02:26:49;;;;;;;23.55;14.00;;;;;;;;;;6322600;22;20018;-93
2023/02/14 02:29:31;;;;;;;24.00;14.45;;;;;;;;;;6317211;22;20010;-93
2023/02/14 02:32:12;;;;;;;22.33;14.63;;;;;;;;;;6306475;22;20027;-92
2023/02/14 02:34:57;;;;;;;23.42;14.70;;;;;;;;;;6287140;22;20045;-90
2023/02/14 02:37:30;;;;;;;22.40;14.38;;;;;;;;;;6311849;22;20580;-93
2023/02/14 02:43:11;;;;;;;20.65;13.20;;;;;;;;;;6344757;22;20026;-92
2023/02/14 02:49:04;;;;;;;23.83;14.57;;;;;;;;;;6337582;22;20041;-90
2023/02/14 02:54:42;;;;;;;22.35;14.40;;;;;;;;;;6352551;22;20014;-89
2023/02/14 02:57:13;;;;;;;23.83;15.02;;;;;;;;;;6323390;22;20011;-93
2023/02/14 02:59:44;;;;;;;24.13;14.63;;;;;;;;;;6298832;22;20102;-93
2023/02/14 03:02:10;;;;;;;22.80;15.07;;;;;;;;;;6304814;22;20266;-91
2023/02/14 03:04:53;;;;;;;21.95;13.90;;;;;;;;;;6279148;22;20022;-93
2023/02/14 03:07:38;;;;;;;;;;;;;;;;;;6307166;22;20037;-91
2023/02/14 03:10:39;;;;;;;23.67;15.15;;;;;;;;;;6289408;22;19918;-94
2023/02/14 03:15:41;;;;;;;22.75;14.43;;;;;;;;;;6339316;22;20080;-91
2023/02/14 03:21:19;;;;;;;22.52;13.98;;;;;;;;;;6339722;22;20030;-91
2023/02/14 03:26:14;;;;;;;22.92;14.63;;;;;;;;;;6323489;22;20375;-92
2023/02/14 03:28:52;;;;;;;24.48;15.05;;;;;;;;;;6301460;22;20019;-92
2023/02/14 03:31:37;;;;;;;24.10;14.77;;;;;;;;;;6308971;22;20050;-94
2023/02/14 03:37:10;;;;;;;25.83;15.90;;;;;;;;;;6348713;22;20043;-92
2023/02/14 03:42:24;;;;;;;24.63;15.17;;;;;;;;;;6115643;22;3733059;-92
2023/02/14 03:44:52;;;;;;;21.52;13.93;;;;;;;;;;6284703;22;20079;-89
2023/02/14 03:47:41;;;;;;;25.67;15.25;;;;;;;;;;6317595;22;20007;-94
2023/02/14 03:50:15;;;;;;;24.40;14.55;;;;;;;;;;6312956;22;20007;-92
2023/02/14 03:52:43;;;;;;;25.30;14.98;;;;;;;;;;6318635;22;20361;-94
2023/02/14 03:55:10;;;;;;;24.88;15.27;;;;;;;;;;6318444;22;20007;-94
2023/02/14 03:57:46;;;;;;;27.00;15.57;;;;;;;;;;6316807;22;20077;-93
2023/02/14 04:00:13;;;;;;;26.10;15.38;;;;;;;;;;6318535;22;20007;-95
2023/02/14 04:02:51;;;;;;;25.48;15.80;;;;;;;;;;6317796;22;20003;-93
2023/02/14 04:05:23;;;;;;;24.63;15.15;;;;;;;;;;6347331;22;20045;-94
2023/02/14 04:07:57;;;;;;;28.25;14.85;;;;;;;;;;6318307;22;20081;-94
2023/02/14 04:10:23;;;;;;;;;;;;;;;;;;6318353;22;20450;-94
2023/02/14 04:12:49;;;;;;;25.33;14.93;;;;;;;;;;6316403;22;19899;-93
2023/02/14 04:15:19;;;;;;;25.85;15.05;;;;;;;;;;6346318;22;20484;-94
2023/02/14 04:26:19;;;;;;;27.83;16.00;;;;;;;;;;6345796;22;20025;-92
2023/02/14 04:28:45;;;;;;;29.23;16.13;;;;;;;;;;6316404;22;20027;-91
2023/02/14 04:31:11;;;;;;;28.63;15.68;;;;;;;;;;6316050;22;20384;-91
2023/02/14 04:33:47;;;;;;;26.52;15.48;;;;;;;;;;6315432;22;20002;-92
2023/02/14 04:36:13;;;;;;;28.15;16.70;;;;;;;;;;6317169;22;20003;-89
2023/02/14 04:38:39;;;;;;;27.30;16.00;;;;;;;;;;6319152;22;20090;-91
2023/02/14 04:41:05;;;;;;;31.38;17.02;;;;;;;;;;6321499;22;20009;-91
2023/02/14 04:43:32;;;;;;;30.63;16.40;;;;;;;;;;6317020;22;20120;-93
2023/02/14 04:45:58;;;;;;;26.42;15.85;;;;;;;;;;6315851;22;20027;-93
2023/02/14 04:48:27;;;;;;;27.67;16.08;;;;;;;;;;6319108;22;20006;-92
2023/02/14 04:50:53;;;;;;;30.85;15.93;;;;;;;;;;6316508;22;20010;-91
2023/02/14 04:53:20;;;;;;;32.17;16.60;;;;;;;;;;6312682;22;20045;-93
2023/02/14 04:55:48;;;;;;;32.92;16.48;;;;;;;;;;6318827;22;20010;-92
2023/02/14 04:58:14;;;;;;;28.80;15.50;;;;;;;;;;6317785;22;20064;-92
2023/02/14 05:00:40;;;;;;;28.60;15.88;;;;;;;;;;6316932;22;20075;-93
2023/02/14 05:03:08;;;;;;;31.67;17.55;;;;;;;;;;6317369;22;20420;-93
2023/02/14 05:05:34;;;;;;;29.98;18.08;;;;;;;;;;6320105;22;20103;-92
2023/02/14 05:08:03;;;;;;;33.63;17.88;;;;;;;;;;6317158;22;19998;-92
2023/02/14 05:10:29;;;;;;;27.63;16.05;;;;;;;;;;6317232;22;20014;-92
2023/02/14 05:12:56;;;;;;;31.25;15.98;;;;;;;;;;6317251;22;20092;-93
2023/02/14 05:15:22;;;;;;;30.13;17.23;;;;;;;;;;6316267;22;20010;-93
2023/02/14 05:17:48;;;;;;;27.83;16.02;;;;;;;;;;6315824;22;20003;-93
2023/02/14 05:20:14;;;;;;;29.02;16.83;;;;;;;;;;6317946;22;20309;-93
2023/02/14 05:22:40;;;;;;;31.25;17.52;;;;;;;;;;6318200;22;20123;-92
2023/02/14 05:25:06;;;;;;;28.98;17.10;;;;;;;;;;6317307;22;20057;-93
2023/02/14 05:27:33;;;;;;;28.50;17.15;;;;;;;;;;6319013;22;20100;-92
2023/02/14 05:30:04;;;;;;;30.23;16.88;;;;;;;;;;6315983;22;20003;-93
2023/02/14 05:32:31;;;;;;;29.33;17.08;;;;;;;;;;6319489;22;20521;-92
2023/02/14 05:34:57;;;;;;;32.38;17.65;;;;;;;;;;6321131;22;19991;-92
2023/02/14 05:37:26;;;;;;;27.83;16.55;;;;;;;;;;6326762;22;20093;-93
2023/02/14 05:39:52;;;;;;;30.15;16.85;;;;;;;;;;6325116;22;20019;-93
2023/02/14 05:42:18;;;;;;;29.10;16.20;;;;;;;;;;6322120;22;20003;-93
2023/02/14 05:47:17;;;;;;;25.50;15.68;;;;;;;;;;6346369;22;20030;-91
2023/02/14 05:57:30;;;;;;;28.02;15.82;;;;;;;;;;6338000;22;20355;-93
2023/02/14 06:02:38;;;;;;;28.65;17.02;;;;;;;;;;6330720;22;20074;-90
2023/02/14 06:05:04;;;;;;;30.13;17.50;;;;;;;;;;6329363;22;20529;-93
2023/02/14 06:07:33;;;;;;;27.15;16.15;;;;;;;;;;6316437;22;20003;-96
2023/02/14 06:09:59;;;;;;;28.98;17.10;;;;;;;;;;6319531;22;20007;-92
2023/02/14 06:12:37;;;;;;;26.98;16.48;;;;;;;;;;6320306;22;20040;-92
2023/02/14 06:15:27;;;;;;;29.02;16.02;;;;;;;;;;6318987;22;20013;-95
2023/02/14 06:17:57;;;;;;;23.65;14.90;;;;;;;;;;6298872;22;20085;-92
2023/02/14 06:20:41;;;;;;;28.23;16.00;;;;;;;;;;6329390;22;20025;-96
2023/02/14 06:26:42;;;;;;;25.55;15.50;;;;;;;;;;6329993;22;20025;-96
2023/02/14 06:29:10;;;;;;;27.83;16.38;;;;;;;;;;6293563;22;20344;-91
2023/02/14 06:31:36;;;;;;;30.00;17.10;;;;;;;;;;6309493;22;20003;-93
2023/02/14 06:34:02;;;;;;;29.90;16.83;;;;;;;;;;6310075;22;20336;-96
2023/02/14 06:36:31;;;;;;;26.25;16.90;;;;;;;;;;6311717;22;20458;-94
2023/02/14 06:38:57;;;;;;;27.92;16.85;;;;;;;;;;6318543;22;20009;-94
2023/02/14 06:41:43;;;;;;;33.63;20.02;;;;;;;;;;6310721;22;20332;-93
2023/02/14 06:44:21;;;;;;;35.15;19.55;;;;;;;;;;6156713;23;20008;-94
2023/02/14 06:46:56;;;;;;;58.60;35.45;;;;;;;;;;6156386;23;20103;-94
2023/02/14 06:49:28;;;;;;;30.05;19.15;;;;;;;;;;6256809;22;20419;-94
2023/02/14 06:55:04;;;;;;;35.67;21.80;;;;;;;;;;6338053;22;20053;-96
2023/02/14 07:00:36;;;;;;;38.13;24.52;;;;;;;;;;6339780;22;20005;-93
2023/02/14 07:03:05;;;;;;;29.55;20.30;;;;;;;;;;6305324;22;20024;-94
2023/02/14 07:05:31;;;;;;;25.25;15.80;;;;;;;;;;6309448;22;20049;-95
2023/02/14 07:08:26;;;;;;;27.40;20.27;;;;;;;;;;6310857;22;20336;-94
2023/02/14 07:10:57;;;;;;;23.73;15.10;;;;;;;;;;6213871;23;20496;-95
2023/02/14 07:13:32;;;;;;;21.40;12.82;;;;;;;;;;6313857;22;20006;-91
2023/02/14 07:16:02;;;;;;;24.17;14.80;;;;;;;;;;6317093;22;20018;-92
2023/02/14 07:18:31;;;;;;;23.00;14.00;;;;;;;;;;6312677;22;20018;-95
2023/02/14 07:21:15;;;;;;;22.08;13.30;;;;;;;;;;6285585;22;20105;-96
2023/02/14 07:23:49;;;;;;;21.35;12.38;;;;;;;;;;6311642;22;20421;-93
2023/02/14 07:26:28;;;;;;;26.05;14.40;;;;;;;;;;6313736;22;20010;-94
2023/02/14 07:29:14;;;;;;;26.02;14.00;;;;;;;;;;6312020;22;19998;-96
2023/02/14 07:31:52;;;;;;;20.65;12.63;;;;;;;;;;6311617;22;19999;-92
2023/02/14 07:34:21;;;;;;;19.38;12.23;;;;;;;;;;6313628;22;20090;-91
2023/02/14 07:39:50;;;;;;;20.60;13.02;;;;;;;;;;6302763;22;20003;-92
2023/02/14 07:42:44;;;;;;;26.88;14.43;;;;;;;;;;6311914;22;20086;-94
2023/02/14 07:45:48;;;;;;;;;;;;;;;;;;;;;
2023/02/14 07:48:20;;;;;;;;;;;;;;;;;;6303598;22;20055;-92
2023/02/14 07:50:50;;;;;;;20.67;13.18;;;;;;;;;;6311374;22;20294;-92
2023/02/14 07:53:17;;;;;;;22.88;16.00;;;;;;;;;;6337524;22;20064;-91
2023/02/14 07:56:10;;;;;;;23.08;14.77;;;;;;;;;;6311372;22;20056;-91
2023/02/14 07:58:49;;;;;;;22.85;13.52;;;;;;;;;;6337404;22;20340;-94
2023/02/14 08:01:25;;;;;;;22.55;14.02;;;;;;;;;;6311232;22;19998;-92
2023/02/14 08:04:30;;;;;;;24.90;14.40;;;;;;;;;;6355901;22;20027;-92
2023/02/14 08:07:19;;;;;;;24.27;13.48;;;;;;;;;;6315345;22;20015;-94
2023/02/14 08:09:45;;;;;;;22.20;13.23;;;;;;;;;;6237665;22;20139;-95
2023/02/14 08:18:32;;;;;;;24.15;14.85;;;;;;;;;;6338679;22;20062;-93
2023/02/14 08:21:15;;;;;;;23.83;14.07;;;;;;;;;;6311611;22;20610;-96
2023/02/14 08:24:01;;;;;;;25.02;14.90;;;;;;;;;;6311288;22;20497;-93
2023/02/14 08:26:37;;;;;;;24.65;15.32;;;;;;;;;;6312239;22;20037;-96
2023/02/14 08:29:12;;;;;;;27.02;16.35;;;;;;;;;;6288190;22;20003;-95
2023/02/14 08:31:38;;;;;;;26.58;15.75;;;;;;;;;;6287663;22;20497;-94
2023/02/14 08:34:09;;;;;;;26.15;16.25;;;;;;;;;;6339997;22;20052;-96
2023/02/14 08:37:01;;;;;;;26.63;16.98;;;;;;;;;;6312747;22;20060;-94
2023/02/14 08:39:27;;;;;;;26.75;16.58;;;;;;;;;;6313321;22;20026;-93
2023/02/14 08:42:29;;;;;;;;;;;;;;;;;;;;;
2023/02/14 08:45:53;;;;;;;25.40;16.25;;;;;;;;;;6283928;22;20015;-95
2023/02/14 08:48:21;;;;;;;23.17;13.93;;;;;;;;;;6230379;22;20086;-93
2023/02/14 08:51:02;;;;;;;26.80;15.60;;;;;;;;;;6249817;22;20094;-93
2023/02/14 08:54:21;;;;;;;25.48;15.68;;;;;;;;;;6251662;22;20008;-94
2023/02/14 08:59:52;;;;;;;28.63;16.27;;;;;;;;;;6227812;23;20016;-90
2023/02/14 09:02:21;;;;;;;23.30;15.00;;;;;;;;;;6242920;22;20146;-91
2023/02/14 09:14:23;;;;;;;24.95;14.10;;;;;;;;;;6224547;23;20071;-95
2023/02/14 09:19:28;;;;;;;27.17;17.17;;;;;;;;;;6300713;22;20336;-94
2023/02/14 09:22:10;;;;;;;21.38;15.10;;;;;;;;;;6315115;22;20005;-93
2023/02/14 09:24:50;;;;;;;25.23;15.73;;;;;;;;;;6314112;22;20355;-93
2023/02/14 09:46:03;;;;;;;33.38;17.17;;;;;;;;;;6190804;23;20173;-96
2023/02/14 09:48:37;;;;;;;22.30;12.38;;;;;;;;;;6166328;23;20028;-95
2023/02/14 09:51:27;;;;;;;20.40;12.98;;;;;;;;;;6171402;23;20042;-93
2023/02/14 09:54:31;;;;;;;;;;;;;;;;;;;;;
2023/02/14 10:03:34;;;;;;;23.17;13.63;;;;;;;;;;6130555;23;20372;-96
2023/02/14 10:06:37;;;;;;;23.80;14.93;;;;;;;;;;6136971;23;20033;-94
2023/02/14 10:09:16;;;;;;;24.65;14.20;;;;;;;;;;6104860;23;20006;-95
2023/02/14 10:11:52;;;;;;;23.42;14.25;;;;;;;;;;6151578;23;20001;-93
2023/02/14 10:14:52;;;;;;;21.00;13.13;;;;;;;;;;6317388;22;20002;-96
2023/02/14 10:20:54;;;;;;;25.27;14.23;;;;;;;;;;6345033;22;20006;-95
2023/02/14 10:23:54;;;;;;;23.90;13.90;;;;;;;;;;6164407;23;20237;-96
2023/02/14 10:30:23;;;;;;;21.33;12.23;;;;;;;;;;6130152;23;20002;-96
2023/02/14 10:33:04;;;;;;;23.55;14.13;;;;;;;;;;6126878;23;20008;-95
2023/02/14 10:39:23;;;;;;;22.30;13.90;;;;;;;;;;6185494;23;20458;-96
2023/02/14 10:51:33;;;;;;;23.50;14.10;;;;;;;;;;6188265;23;20071;-95
2023/02/14 10:54:30;;;;;;;23.17;13.68;;;;;;;;;;6147441;23;20040;-96
2023/02/14 10:57:22;;;;;;;22.25;12.95;;;;;;;;;;6172402;23;20366;-95
2023/02/14 11:12:00;;;;;;;23.45;14.43;;;;;;;;;;6314733;22;20019;-95
2023/02/14 11:32:40;;;;;;;20.73;13.75;;;;;;;;;;6292711;22;20444;-94
2023/02/14 11:35:10;;;;;;;21.00;13.60;;;;;;;;;;6318931;22;20010;-94
2023/02/14 11:49:00;;;;;;;21.52;13.13;;;;;;;;;;6343446;22;20084;-95
2023/02/14 11:54:54;;;;;;;22.40;15.00;;;;;;;;;;6293421;22;20019;-95
2023/02/14 11:57:20;;;;;;;23.52;15.25;;;;;;;;;;6261289;22;20015;-95
2023/02/14 12:00:05;;;;;;;23.95;14.80;;;;;;;;;;6291039;22;20020;-96
2023/02/14 12:03:05;;;;;;;24.77;15.27;;;;;;;;;;6296269;22;20010;-96
2023/02/14 15:39:20;;;;;;;20.08;11.57;;;;;;;;;;6232234;22;20192;-93
2023/02/14 15:41:52;;;;;;;23.35;13.63;;;;;;;;;;6228853;23;20095;-96
2023/02/14 15:50:18;;;;;;;14.82;9.27;;;;;;;;;;6347603;22;20022;-93
2023/02/14 16:04:05;;;;;;;35.45;14.70;;;;;;;;;;6356005;22;20042;-93
2023/02/14 16:09:43;;;;;;;37.63;15.65;;;;;;;;;;6359799;22;20018;-95
2023/02/14 16:22:03;;;;;;;27.73;14.25;;;;;;;;;;6322774;22;20347;-91
2023/02/14 16:25:14;;;;;;;20.98;11.98;;;;;;;;;;6300187;22;20011;-94
2023/02/14 16:31:37;;;;;;;23.33;12.13;;;;;;;;;;6291535;22;20031;-96
2023/02/14 16:40:29;;;;;;;19.88;11.45;;;;;;;;;;6350746;22;20042;-96
2023/02/14 16:46:14;;;;;;;23.20;12.40;;;;;;;;;;6294795;22;20026;-92
2023/02/14 17:04:55;;;;;;;63.22;27.75;;;;;;;;;;6227799;23;20090;-96
2023/02/14 17:07:25;;;;;;;119.53;46.30;;;;;;;;;;6250348;22;20057;-96
2023/02/14 17:10:27;;;;;;;117.93;49.65;;;;;;;;;;6294128;22;20065;-93
2023/02/14 17:15:53;;;;;;;34.92;18.10;;;;;;;;;;6354284;22;20022;-95
2023/02/14 17:18:23;;;;;;;52.90;22.90;;;;;;;;;;6318230;22;20023;-94
2023/02/14 17:37:12;;;;;;;57.33;22.20;;;;;;;;;;6355492;22;20006;-96
2023/02/14 17:45:15;;;;;;;127.57;40.22;;;;;;;;;;6293089;22;20034;-95
2023/02/14 17:48:02;;;;;;;106.32;34.60;;;;;;;;;;6311665;22;20023;-95
2023/02/14 18:12:10;;;;;;;74.78;27.88;;;;;;;;;;6351002;22;20384;-96
2023/02/14 18:14:43;;;;;;;43.90;19.20;;;;;;;;;;6323850;22;20014;-95
2023/02/14 18:17:23;;;;;;;77.05;27.52;;;;;;;;;;6320693;22;20022;-95
2023/02/14 18:35:43;;;;;;;100.72;43.35;;;;;;;;;;6350625;22;20148;-96
2023/02/14 18:38:18;;;;;;;88.15;41.00;;;;;;;;;;6320141;22;20003;-95
2023/02/14 18:40:55;;;;;;;110.45;47.60;;;;;;;;;;6327608;22;19998;-93
2023/02/14 18:43:24;;;;;;;111.53;49.38;;;;;;;;;;6330127;22;20037;-95
2023/02/14 18:49:05;;;;;;;70.95;32.92;;;;;;;;;;6355018;22;20018;-95
2023/02/14 18:51:45;;;;;;;69.82;32.88;;;;;;;;;;6355710;22;20058;-94
2023/02/14 18:57:15;;;;;;;88.22;42.80;;;;;;;;;;6348708;22;20033;-95
2023/02/14 18:59:41;;;;;;;55.78;29.13;;;;;;;;;;6315004;22;20014;-95
2023/02/14 19:05:12;;;;;;;55.80;29.00;;;;;;;;;;6352664;22;20382;-92
2023/02/14 19:08:02;;;;;;;56.42;28.88;;;;;;;;;;6325811;22;19998;-95
2023/02/14 19:10:31;;;;;;;38.33;21.05;;;;;;;;;;6323193;22;20003;-95
2023/02/14 19:13:00;;;;;;;42.78;22.27;;;;;;;;;;6319672;22;20006;-95
2023/02/14 19:15:27;;;;;;;50.13;24.83;;;;;;;;;;6319792;22;20006;-94
2023/02/14 19:17:56;;;;;;;40.88;21.80;;;;;;;;;;6320733;22;20003;-96
2023/02/14 19:20:25;;;;;;;35.42;18.35;;;;;;;;;;6321733;22;20002;-93
2023/02/14 19:23:15;;;;;;;30.98;17.95;;;;;;;;;;6319447;22;20056;-93
2023/02/14 19:25:40;;;;;;;33.78;17.58;;;;;;;;;;6348910;22;20045;-94
2023/02/14 19:28:22;;;;;;;31.48;16.60;;;;;;;;;;6325145;22;20268;-95
2023/02/14 19:30:48;;;;;;;25.73;15.25;;;;;;;;;;6326117;22;20484;-96
2023/02/14 19:33:20;;;;;;;30.55;16.55;;;;;;;;;;6327586;22;20029;-95
2023/02/14 19:35:52;;;;;;;32.80;18.27;;;;;;;;;;6325542;22;20010;-96
2023/02/14 19:38:18;;;;;;;33.50;18.00;;;;;;;;;;6318247;22;20047;-94
2023/02/14 19:41:02;;;;;;;28.52;16.30;;;;;;;;;;6320952;22;20003;-93
2023/02/14 19:43:31;;;;;;;25.27;14.55;;;;;;;;;;6320710;22;20032;-93
2023/02/14 19:45:57;;;;;;;24.90;13.25;;;;;;;;;;6316694;22;20015;-94
2023/02/14 19:48:24;;;;;;;28.75;16.08;;;;;;;;;;6316759;22;20062;-94
2023/02/14 19:51:20;;;;;;;35.72;17.25;;;;;;;;;;6324568;22;20013;-96
2023/02/14 19:53:52;;;;;;;24.90;14.40;;;;;;;;;;6322203;22;20010;-94
2023/02/14 19:56:35;;;;;;;60.10;26.38;;;;;;;;;;6320858;22;20022;-95
2023/02/14 19:59:34;;;;;;;84.40;33.73;;;;;;;;;;6315038;22;20033;-94
2023/02/14 20:01:59;;;;;;;83.32;33.17;;;;;;;;;;6339593;22;20009;-94
2023/02/14 20:04:32;;;;;;;70.82;30.83;;;;;;;;;;6315877;22;20007;-95
2023/02/14 20:15:51;;;;;;;50.53;24.25;;;;;;;;;;6340094;22;20444;-94
2023/02/14 20:18:17;;;;;;;38.47;20.17;;;;;;;;;;6312391;22;20474;-95
2023/02/14 20:21:02;;;;;;;34.17;18.02;;;;;;;;;;6310885;22;20006;-94
2023/02/14 20:23:28;;;;;;;42.88;22.42;;;;;;;;;;6313887;22;20003;-94
2023/02/14 20:25:54;;;;;;;37.17;19.42;;;;;;;;;;6311277;22;20074;-94
2023/02/14 20:28:20;;;;;;;39.25;21.38;;;;;;;;;;6319305;22;19999;-93
2023/02/14 20:33:35;;;;;;;45.80;20.30;;;;;;;;;;6358914;22;20021;-93
2023/02/14 20:36:09;;;;;;;39.50;20.83;;;;;;;;;;6330338;22;19999;-93
2023/02/14 20:38:39;;;;;;;43.47;21.23;;;;;;;;;;6308176;22;20014;-93
2023/02/14 20:41:09;;;;;;;39.53;21.27;;;;;;;;;;6313975;22;19998;-93
2023/02/14 20:43:36;;;;;;;39.63;21.30;;;;;;;;;;6312484;22;20060;-93
2023/02/14 20:46:03;;;;;;;46.00;21.65;;;;;;;;;;6312776;22;20019;-94
2023/02/14 20:48:30;;;;;;;45.97;23.42;;;;;;;;;;6311740;22;20063;-92
2023/02/14 20:50:56;;;;;;;40.33;22.23;;;;;;;;;;6312195;22;20007;-95
2023/02/14 20:53:23;;;;;;;41.33;21.02;;;;;;;;;;6314860;22;20010;-94
2023/02/14 20:55:51;;;;;;;51.70;24.80;;;;;;;;;;6311010;22;20053;-93
2023/02/14 20:58:17;;;;;;;49.05;27.30;;;;;;;;;;6312175;22;19995;-93
2023/02/14 21:00:43;;;;;;;57.70;29.10;;;;;;;;;;6311157;22;20072;-91
2023/02/14 21:03:10;;;;;;;50.70;26.30;;;;;;;;;;6312721;22;20010;-93
2023/02/14 21:05:39;;;;;;;59.80;27.67;;;;;;;;;;6311578;22;20022;-94
2023/02/14 21:08:06;;;;;;;61.60;29.65;;;;;;;;;;6311713;22;20007;-93
2023/02/14 21:10:36;;;;;;;57.80;27.75;;;;;;;;;;6312078;22;20085;-93
2023/02/14 21:13:02;;;;;;;56.45;26.55;;;;;;;;;;6312355;22;20003;-93
2023/02/14 21:15:28;;;;;;;60.35;27.50;;;;;;;;;;6312352;22;20011;-92
2023/02/14 21:18:01;;;;;;;56.08;28.10;;;;;;;;;;6312918;22;20003;-95
2023/02/14 21:20:27;;;;;;;103.90;47.47;;;;;;;;;;6312608;22;20011;-94
2023/02/14 21:22:55;;;;;;;109.47;49.17;;;;;;;;;;6312250;22;20022;-92
2023/02/14 21:25:21;;;;;;;96.10;43.20;;;;;;;;;;6312561;22;20058;-93
2023/02/14 21:28:13;;;;;;;88.85;40.47;;;;;;;;;;6313945;22;20087;-96
2023/02/14 21:33:52;;;;;;;84.27;38.33;;;;;;;;;;6343653;22;20010;-96
2023/02/14 21:36:28;;;;;;;83.28;38.33;;;;;;;;;;6314810;22;20014;-96
2023/02/14 21:41:36;;;;;;;57.00;27.27;;;;;;;;;;6327868;22;21217;-91
2023/02/14 21:44:03;;;;;;;46.83;22.52;;;;;;;;;;6312313;22;20011;-91
2023/02/14 21:46:34;;;;;;;51.63;25.15;;;;;;;;;;6311122;22;20079;-95
2023/02/14 21:51:46;;;;;;;66.43;32.38;;;;;;;;;;6340650;22;20030;-94
2023/02/14 21:54:13;;;;;;;75.30;33.85;;;;;;;;;;6314566;22;20003;-93
2023/02/14 21:56:42;;;;;;;78.85;35.83;;;;;;;;;;6320297;22;20041;-95
2023/02/14 21:59:11;;;;;;;67.15;32.05;;;;;;;;;;6313387;22;20034;-95
2023/02/14 22:01:38;;;;;;;85.72;39.22;;;;;;;;;;6316787;22;20072;-91
2023/02/14 22:04:09;;;;;;;101.68;44.67;;;;;;;;;;6316941;22;20072;-93
2023/02/14 22:06:36;;;;;;;121.78;51.63;;;;;;;;;;6321515;22;20014;-90
2023/02/14 22:09:18;;;;;;;111.32;47.70;;;;;;;;;;6312839;22;19995;-93
2023/02/14 22:11:46;;;;;;;107.35;47.17;;;;;;;;;;6314904;22;20014;-93
2023/02/14 22:14:16;;;;;;;59.33;28.30;;;;;;;;;;6340758;22;20078;-91
2023/02/14 22:16:42;;;;;;;58.95;27.30;;;;;;;;;;6313707;22;20029;-93
2023/02/14 22:19:11;;;;;;;104.82;43.95;;;;;;;;;;6323755;22;19995;-94
2023/02/14 22:21:37;;;;;;;104.07;45.90;;;;;;;;;;6320378;22;20032;-92
2023/02/14 22:24:04;;;;;;;65.50;32.55;;;;;;;;;;6315064;22;20045;-91
2023/02/14 22:26:37;;;;;;;90.80;41.65;;;;;;;;;;6313407;22;20483;-93
2023/02/14 22:29:04;;;;;;;96.93;44.13;;;;;;;;;;6315939;22;20003;-94
2023/02/14 22:31:33;;;;;;;76.40;34.55;;;;;;;;;;6315619;22;20013;-94
2023/02/14 22:33:59;;;;;;;71.78;32.33;;;;;;;;;;6315863;22;20013;-91
2023/02/14 22:36:26;;;;;;;57.90;26.65;;;;;;;;;;6316566;22;20324;-95
2023/02/14 22:38:52;;;;;;;59.92;28.70;;;;;;;;;;6345063;22;20392;-94
2023/02/14 22:41:22;;;;;;;77.35;35.83;;;;;;;;;;6318599;22;20019;-93
2023/02/14 22:43:50;;;;;;;76.38;35.38;;;;;;;;;;6318742;22;20067;-94
2023/02/14 22:52:02;;;;;;;83.82;35.95;;;;;;;;;;6323367;22;20404;-92
2023/02/14 22:54:34;;;;;;;71.40;34.33;;;;;;;;;;6313134;22;20046;-95
2023/02/14 22:57:00;;;;;;;82.57;38.15;;;;;;;;;;6315735;22;20003;-93
2023/02/14 22:59:27;;;;;;;79.85;36.28;;;;;;;;;;6316239;22;19994;-92
2023/02/14 23:01:54;;;;;;;73.97;35.08;;;;;;;;;;6316775;22;20018;-92
2023/02/14 23:04:21;;;;;;;80.90;36.45;;;;;;;;;;6316229;22;20065;-92
2023/02/14 23:06:47;;;;;;;65.40;30.58;;;;;;;;;;6315503;22;20015;-93
2023/02/14 23:09:14;;;;;;;78.85;34.67;;;;;;;;;;6311975;22;20049;-92
2023/02/14 23:11:41;;;;;;;83.68;37.10;;;;;;;;;;6312418;22;20450;-92
2023/02/14 23:22:22;;;;;;;87.13;38.47;;;;;;;;;;6357135;22;20016;-92
2023/02/14 23:24:49;;;;;;;77.25;36.47;;;;;;;;;;6331000;22;20017;-93
2023/02/14 23:27:16;;;;;;;77.30;36.22;;;;;;;;;;6332071;22;20006;-92
2023/02/14 23:29:42;;;;;;;73.75;35.63;;;;;;;;;;6329907;22;20033;-92
2023/02/14 23:32:09;;;;;;;86.32;38.40;;;;;;;;;;6329068;22;20002;-92
2023/02/14 23:34:37;;;;;;;65.45;31.63;;;;;;;;;;6326399;22;20041;-92
2023/02/14 23:37:03;;;;;;;69.43;33.53;;;;;;;;;;6330854;22;20003;-92
2023/02/14 23:39:35;;;;;;;77.65;36.20;;;;;;;;;;6328838;22;19998;-92
2023/02/14 23:42:12;;;;;;;64.65;30.58;;;;;;;;;;6329713;22;20046;-92
2023/02/14 23:44:39;;;;;;;62.15;29.05;;;;;;;;;;6305105;22;20027;-92
2023/02/14 23:47:07;;;;;;;73.05;30.20;;;;;;;;;;6304500;22;20010;-91
2023/02/14 23:49:34;;;;;;;77.88;34.90;;;;;;;;;;6328274;22;20017;-92
2023/02/14 23:52:00;;;;;;;67.43;33.55;;;;;;;;;;6328864;22;20015;-91
2023/02/14 23:54:28;;;;;;;61.50;28.70;;;;;;;;;;6303873;22;20011;-92
2023/02/14 23:56:56;;;;;;;49.53;23.60;;;;;;;;;;6358304;22;20026;-92
2023/02/14 23:59:25;;;;;;;59.15;28.38;;;;;;;;;;6330650;22;20090;-91
